Time;durP1;ratioP1;P1;durP2;ratioP2;P2;SDS_P1;SDS_P2;PMS_P1;PMS_P2;Temp;Humidity;BMP_temperature;BMP_pressure;BME280_temperature;BME280_humidity;BME280_pressure;Samples;Min_cycle;Max_cycle;Signal;HPM_P1;HPM_P2
2023/10/25 00:01:17;;;;;;;11.47;9.77;;;9.10;99.90;;;;;;5100855;28;20185;-47
2023/10/25 00:03:43;;;;;;;13.53;9.60;;;9.00;99.90;;;;;;5102433;28;20193;-46
2023/10/25 00:06:10;;;;;;;12.60;9.73;;;9.00;99.90;;;;;;5067887;28;20937;-47
2023/10/25 00:08:38;;;;;;;11.47;9.50;;;8.90;99.90;;;;;;5103355;28;20185;-48
2023/10/25 00:11:07;;;;;;;11.67;9.67;;;8.90;99.90;;;;;;5098962;28;20274;-45
2023/10/25 00:13:34;;;;;;;12.93;9.20;;;8.90;99.90;;;;;;5102397;28;20218;-47
2023/10/25 00:16:02;;;;;;;11.23;9.63;;;8.90;99.90;;;;;;5098490;28;20185;-47
2023/10/25 00:18:29;;;;;;;10.70;9.17;;;8.80;99.90;;;;;;5102594;28;20230;-43
2023/10/25 00:20:56;;;;;;;16.30;10.13;;;8.80;99.90;;;;;;5072485;28;20201;-53
2023/10/25 00:23:23;;;;;;;13.10;10.10;;;8.80;99.90;;;;;;5098943;28;20309;-44
2023/10/25 00:25:52;;;;;;;12.53;10.50;;;8.80;99.90;;;;;;5096702;28;20298;-50
2023/10/25 00:28:19;;;;;;;13.50;10.20;;;8.80;99.90;;;;;;5100029;28;20213;-49
2023/10/25 00:30:46;;;;;;;14.33;10.33;;;8.80;99.90;;;;;;5100001;28;20197;-50
2023/10/25 00:33:13;;;;;;;12.97;11.00;;;8.70;99.90;;;;;;5098508;28;20225;-46
2023/10/25 00:35:40;;;;;;;17.17;11.23;;;8.70;99.90;;;;;;5102316;28;20197;-48
2023/10/25 00:38:07;;;;;;;15.70;11.07;;;8.70;99.90;;;;;;5069962;28;20874;-44
2023/10/25 00:40:33;;;;;;;15.43;12.30;;;8.70;99.90;;;;;;5102393;28;20193;-43
2023/10/25 00:43:16;;;;;;;19.17;11.97;;;8.70;99.90;;;;;;5098058;28;20201;-43
2023/10/25 00:45:57;;;;;;;16.97;12.47;;;8.70;99.90;;;;;;5095051;28;20354;-48
2023/10/25 00:48:25;;;;;;;17.07;11.70;;;8.70;99.90;;;;;;5097246;28;20293;-46
2023/10/25 00:50:53;;;;;;;16.83;12.30;;;8.70;99.90;;;;;;5098527;28;20205;-49
2023/10/25 00:53:21;;;;;;;16.27;11.97;;;8.70;99.90;;;;;;5071633;28;20227;-44
2023/10/25 00:55:49;;;;;;;16.37;13.03;;;8.70;99.90;;;;;;5100742;28;20194;-50
2023/10/25 00:58:17;;;;;;;16.73;12.13;;;8.60;99.90;;;;;;5106132;28;20188;-43
2023/10/25 01:00:44;;;;;;;16.23;12.70;;;8.60;99.90;;;;;;5101455;28;20609;-47
2023/10/25 01:03:12;;;;;;;19.87;13.50;;;8.50;99.90;;;;;;5105428;28;20389;-45
2023/10/25 01:05:40;;;;;;;15.10;11.43;;;8.50;99.90;;;;;;5106770;28;20216;-47
2023/10/25 01:08:07;;;;;;;15.23;9.87;;;8.40;99.90;;;;;;5068956;28;20585;-43
2023/10/25 01:10:34;;;;;;;13.50;10.13;;;8.40;99.90;;;;;;5110574;28;20197;-48
2023/10/25 01:13:01;;;;;;;12.93;10.27;;;8.50;99.90;;;;;;5098974;28;20974;-43
2023/10/25 01:15:29;;;;;;;12.90;10.47;;;8.40;99.90;;;;;;5100936;28;20197;-43
2023/10/25 01:17:57;;;;;;;16.43;10.70;;;8.30;99.90;;;;;;5097000;28;20190;-49
2023/10/25 01:20:24;;;;;;;14.20;10.43;;;8.20;99.90;;;;;;5101571;28;20204;-48
2023/10/25 01:22:52;;;;;;;15.77;9.83;;;8.10;99.90;;;;;;5083456;28;20606;-50
2023/10/25 01:25:19;;;;;;;15.13;10.93;;;8.00;99.90;;;;;;5085877;28;20193;-53
2023/10/25 01:27:45;;;;;;;14.07;10.27;;;8.00;99.90;;;;;;5096750;28;20189;-45
2023/10/25 01:30:13;;;;;;;12.27;10.30;;;8.00;99.90;;;;;;5098673;28;20262;-48
2023/10/25 01:32:40;;;;;;;16.33;10.57;;;8.10;99.90;;;;;;5099717;28;20801;-46
2023/10/25 01:35:08;;;;;;;18.47;11.13;;;8.00;99.90;;;;;;5106735;28;20197;-43
2023/10/25 01:37:35;;;;;;;13.70;10.50;;;8.10;99.90;;;;;;5105464;27;20189;-44
2023/10/25 01:40:04;;;;;;;12.53;9.73;;;8.00;99.90;;;;;;5075147;28;20246;-46
2023/10/25 01:42:31;;;;;;;11.23;9.77;;;8.00;99.90;;;;;;5100642;28;20213;-44
2023/10/25 01:44:58;;;;;;;15.37;9.63;;;8.00;99.90;;;;;;5104281;28;20197;-43
2023/10/25 01:47:25;;;;;;;14.30;10.07;;;7.90;99.90;;;;;;5100605;28;20262;-49
2023/10/25 01:49:51;;;;;;;12.10;8.90;;;7.90;99.90;;;;;;5105203;28;20193;-44
2023/10/25 01:52:18;;;;;;;14.50;10.87;;;7.90;99.90;;;;;;5100827;28;20209;-51
2023/10/25 01:54:46;;;;;;;16.63;10.43;;;7.90;99.90;;;;;;5070274;28;20190;-47
2023/10/25 01:57:14;;;;;;;16.57;11.00;;;7.80;99.90;;;;;;5104519;28;20194;-52
2023/10/25 01:59:41;;;;;;;12.93;9.63;;;7.80;99.90;;;;;;5097713;28;20228;-46
2023/10/25 02:02:07;;;;;;;15.27;10.23;;;7.70;99.90;;;;;;5103124;28;20217;-45
2023/10/25 02:04:34;;;;;;;13.77;9.53;;;7.70;99.90;;;;;;5100143;28;20224;-43
2023/10/25 02:07:02;;;;;;;13.13;8.83;;;7.70;99.90;;;;;;5105668;28;20209;-48
2023/10/25 02:09:29;;;;;;;12.70;9.67;;;7.50;99.90;;;;;;5072008;27;20225;-48
2023/10/25 02:11:56;;;;;;;16.13;10.30;;;7.50;99.90;;;;;;5105572;28;20213;-43
2023/10/25 02:14:25;;;;;;;11.83;9.70;;;7.40;99.90;;;;;;5101986;27;20201;-53
2023/10/25 02:16:52;;;;;;;12.73;10.50;;;7.40;99.90;;;;;;5103320;28;20204;-43
2023/10/25 02:19:19;;;;;;;12.83;10.37;;;7.40;99.90;;;;;;5100374;28;20266;-48
2023/10/25 02:21:46;;;;;;;13.50;9.77;;;7.40;99.90;;;;;;5101894;28;20225;-45
2023/10/25 02:24:15;;;;;;;10.73;9.03;;;7.40;99.90;;;;;;5093822;28;20202;-51
2023/10/25 02:26:43;;;;;;;12.57;9.50;;;7.40;99.90;;;;;;5083929;28;20217;-43
2023/10/25 02:29:10;;;;;;;13.23;9.47;;;7.30;99.90;;;;;;5104196;28;20213;-48
2023/10/25 02:31:38;;;;;;;15.07;10.37;;;7.20;99.90;;;;;;5099731;28;20926;-43
2023/10/25 02:34:05;;;;;;;14.60;9.73;;;7.10;99.90;;;;;;5104739;28;20246;-43
2023/10/25 02:36:33;;;;;;;12.50;8.97;;;7.10;99.90;;;;;;5098086;28;20278;-43
2023/10/25 02:38:59;;;;;;;13.10;10.70;;;7.10;99.90;;;;;;5105863;27;20259;-43
2023/10/25 02:41:26;;;;;;;13.67;10.73;;;7.10;99.90;;;;;;5062690;27;20218;-47
2023/10/25 02:43:54;;;;;;;12.77;10.23;;;7.20;99.90;;;;;;5103780;28;20602;-46
2023/10/25 02:46:21;;;;;;;19.20;11.47;;;7.20;99.90;;;;;;5100851;27;20210;-49
2023/10/25 02:48:51;;;;;;;12.80;10.30;;;7.20;99.90;;;;;;5098975;27;20193;-47
2023/10/25 02:51:18;;;;;;;14.20;10.13;;;7.10;99.90;;;;;;5100817;28;20189;-51
2023/10/25 02:53:45;;;;;;;14.57;10.63;;;7.10;99.90;;;;;;5099246;27;20407;-43
2023/10/25 02:56:12;;;;;;;12.70;10.20;;;7.00;99.90;;;;;;5098704;28;20242;-52
2023/10/25 02:58:40;;;;;;;17.73;12.23;;;7.00;99.90;;;;;;5086026;27;20285;-46
2023/10/25 03:01:07;;;;;;;19.67;12.07;;;7.00;99.90;;;;;;5103113;28;20247;-44
2023/10/25 03:03:35;;;;;;;20.23;13.37;;;7.00;99.90;;;;;;5098463;28;20296;-43
2023/10/25 03:06:03;;;;;;;15.00;10.67;;;7.00;99.90;;;;;;5104535;27;20611;-46
2023/10/25 03:08:31;;;;;;;17.83;11.13;;;7.00;99.90;;;;;;5099604;27;20201;-45
2023/10/25 03:10:58;;;;;;;18.33;11.40;;;7.00;99.90;;;;;;5104677;27;20204;-45
2023/10/25 03:13:25;;;;;;;18.80;13.63;;;7.00;99.90;;;;;;5071794;27;20741;-50
2023/10/25 03:15:51;;;;;;;20.83;13.97;;;7.00;99.90;;;;;;5103595;28;20723;-45
2023/10/25 03:18:19;;;;;;;19.03;12.70;;;7.10;99.90;;;;;;5101337;28;20200;-47
2023/10/25 03:20:46;;;;;;;28.37;13.77;;;7.10;99.90;;;;;;5106169;27;20904;-43
2023/10/25 03:23:14;;;;;;;44.43;13.47;;;7.00;99.90;;;;;;5104891;27;20614;-46
2023/10/25 03:25:41;;;;;;;19.93;12.37;;;7.00;99.90;;;;;;5103319;27;20196;-47
2023/10/25 03:28:08;;;;;;;34.87;13.67;;;7.00;99.90;;;;;;5075948;27;20217;-43
2023/10/25 03:30:37;;;;;;;17.70;12.17;;;7.00;99.90;;;;;;5108470;27;20201;-43
2023/10/25 03:33:04;;;;;;;19.90;13.00;;;6.90;99.90;;;;;;5098042;28;20222;-46
2023/10/25 03:35:31;;;;;;;21.33;13.13;;;6.90;99.90;;;;;;5099212;28;20205;-43
2023/10/25 03:37:57;;;;;;;27.97;15.63;;;7.00;99.90;;;;;;5101713;28;20627;-48
2023/10/25 03:40:25;;;;;;;20.83;14.40;;;7.00;99.90;;;;;;5100807;27;20197;-51
2023/10/25 03:42:52;;;;;;;22.20;13.90;;;7.00;99.90;;;;;;5103739;27;20209;-43
2023/10/25 03:45:20;;;;;;;24.17;15.07;;;7.10;99.90;;;;;;5071898;27;20517;-49
2023/10/25 03:47:47;;;;;;;26.00;15.10;;;7.10;99.90;;;;;;5103509;27;20473;-44
2023/10/25 03:50:17;;;;;;;22.60;14.83;;;7.20;99.90;;;;;;5100024;28;20266;-47
2023/10/25 03:52:44;;;;;;;24.80;14.80;;;7.20;99.90;;;;;;5103414;27;20202;-43
2023/10/25 03:55:11;;;;;;;26.50;15.10;;;7.20;99.90;;;;;;5105460;27;20677;-52
2023/10/25 03:57:39;;;;;;;24.57;15.57;;;7.20;99.90;;;;;;5104494;27;20189;-43
2023/10/25 04:00:08;;;;;;;26.30;15.13;;;7.20;99.90;;;;;;5070222;27;20243;-47
2023/10/25 04:02:39;;;;;;;24.93;14.67;;;7.20;99.90;;;;;;5101760;27;20225;-44
2023/10/25 04:05:06;;;;;;;29.30;15.00;;;7.20;99.90;;;;;;5102755;28;20614;-43
2023/10/25 04:07:33;;;;;;;21.77;13.83;;;7.20;99.90;;;;;;5100271;27;20220;-43
2023/10/25 04:10:00;;;;;;;24.50;13.37;;;7.20;99.90;;;;;;5106286;27;20601;-43
2023/10/25 04:12:27;;;;;;;22.83;14.93;;;7.20;99.90;;;;;;5099012;28;20221;-48
2023/10/25 04:14:55;;;;;;;25.00;14.83;;;7.20;99.90;;;;;;5074994;27;20284;-43
2023/10/25 04:17:22;;;;;;;20.57;14.43;;;7.20;99.90;;;;;;5103473;27;20832;-51
2023/10/25 04:19:49;;;;;;;21.27;14.27;;;7.10;99.90;;;;;;5105093;27;20200;-43
2023/10/25 04:22:16;;;;;;;27.50;15.37;;;7.10;99.90;;;;;;5101044;28;20266;-52
2023/10/25 04:24:42;;;;;;;26.80;14.90;;;7.10;99.90;;;;;;5103996;27;20328;-42
2023/10/25 04:27:09;;;;;;;21.80;13.97;;;7.10;99.90;;;;;;5105669;27;20699;-46
2023/10/25 04:29:36;;;;;;;24.40;14.27;;;7.10;99.90;;;;;;5067837;28;20301;-43
2023/10/25 04:32:06;;;;;;;26.17;14.53;;;7.10;99.90;;;;;;5100020;28;20242;-48
2023/10/25 04:34:32;;;;;;;25.07;14.67;;;7.10;99.90;;;;;;5098443;28;20196;-43
2023/10/25 04:36:59;;;;;;;26.97;15.47;;;7.10;99.90;;;;;;5102351;28;20720;-46
2023/10/25 04:39:26;;;;;;;26.30;14.57;;;7.10;99.90;;;;;;5098763;28;20574;-51
2023/10/25 04:41:53;;;;;;;26.00;15.47;;;7.10;99.90;;;;;;5103002;28;20212;-45
2023/10/25 04:44:19;;;;;;;29.80;16.77;;;7.10;99.90;;;;;;5099106;28;20780;-46
2023/10/25 04:46:47;;;;;;;26.37;14.70;;;7.10;99.90;;;;;;5063373;27;20212;-43
2023/10/25 04:49:15;;;;;;;24.03;14.50;;;7.10;99.90;;;;;;5101276;28;20205;-51
2023/10/25 04:51:42;;;;;;;26.57;15.00;;;7.00;99.90;;;;;;5101384;28;20217;-46
2023/10/25 04:54:09;;;;;;;24.73;14.93;;;7.00;99.90;;;;;;5103884;28;20216;-43
2023/10/25 04:56:36;;;;;;;27.63;14.77;;;7.00;99.90;;;;;;5104392;28;20812;-46
2023/10/25 04:59:02;;;;;;;24.67;14.47;;;7.10;99.90;;;;;;5105178;28;20250;-49
2023/10/25 05:01:29;;;;;;;25.73;14.93;;;7.10;99.90;;;;;;5067761;28;20211;-49
2023/10/25 05:03:56;;;;;;;22.90;13.77;;;7.00;99.90;;;;;;5104312;28;20267;-45
2023/10/25 05:06:25;;;;;;;29.37;16.53;;;7.00;99.90;;;;;;5102451;28;20276;-51
2023/10/25 05:08:52;;;;;;;23.33;14.10;;;7.00;99.90;;;;;;5098590;28;20282;-46
2023/10/25 05:11:23;;;;;;;22.97;13.20;;;7.10;99.90;;;;;;5103905;28;20189;-51
2023/10/25 05:13:50;;;;;;;20.53;13.13;;;7.10;99.90;;;;;;5107530;27;20709;-43
2023/10/25 05:16:17;;;;;;;22.53;12.17;;;7.10;99.90;;;;;;5073896;28;20277;-50
2023/10/25 05:18:45;;;;;;;18.73;12.77;;;7.10;99.90;;;;;;5111105;27;20991;-46
2023/10/25 05:21:16;;;;;;;21.23;13.33;;;7.10;99.90;;;;;;5106561;27;20683;-50
2023/10/25 05:23:45;;;;;;;19.60;12.77;;;7.10;99.90;;;;;;5103979;28;20215;-45
2023/10/25 05:26:12;;;;;;;22.47;12.50;;;7.00;99.90;;;;;;5109362;27;20197;-51
2023/10/25 05:28:39;;;;;;;22.90;13.53;;;6.90;99.90;;;;;;5106556;27;20209;-44
2023/10/25 05:31:07;;;;;;;21.00;13.03;;;6.90;99.90;;;;;;5106028;28;20773;-42
2023/10/25 05:33:34;;;;;;;19.50;12.57;;;6.90;99.90;;;;;;5064708;28;20208;-43
2023/10/25 05:36:02;;;;;;;19.17;12.17;;;6.80;99.90;;;;;;5096972;28;20197;-45
2023/10/25 05:38:30;;;;;;;20.43;13.17;;;6.80;99.90;;;;;;5100681;28;20298;-49
2023/10/25 05:40:59;;;;;;;22.63;13.33;;;6.80;99.90;;;;;;5105526;28;20575;-45
2023/10/25 05:43:29;;;;;;;22.70;13.10;;;6.80;99.90;;;;;;5099966;28;20283;-50
2023/10/25 05:45:56;;;;;;;21.27;12.73;;;6.70;99.90;;;;;;5102698;27;20560;-44
2023/10/25 05:48:24;;;;;;;20.30;13.10;;;6.70;99.90;;;;;;5065142;27;20594;-50
2023/10/25 05:50:51;;;;;;;40.03;14.43;;;6.70;99.90;;;;;;5104678;28;20197;-45
2023/10/25 05:53:19;;;;;;;42.03;15.27;;;6.80;99.90;;;;;;5103523;28;20277;-50
2023/10/25 05:55:47;;;;;;;101.90;18.13;;;6.80;99.90;;;;;;5107325;27;20211;-43
2023/10/25 05:58:16;;;;;;;92.77;16.97;;;6.80;99.90;;;;;;5104138;28;20193;-50
2023/10/25 06:00:48;;;;;;;82.37;17.80;;;6.90;99.90;;;;;;5105125;27;20239;-45
2023/10/25 06:03:19;;;;;;;140.17;18.13;;;7.00;99.90;;;;;;5095904;27;20917;-48
2023/10/25 06:05:50;;;;;;;223.57;21.87;;;7.00;99.90;;;;;;5093308;27;20204;-42
2023/10/25 06:08:18;;;;;;;135.93;16.97;;;7.00;99.90;;;;;;5106095;27;20210;-49
2023/10/25 06:10:45;;;;;;;175.43;20.43;;;7.10;99.90;;;;;;5103445;28;20880;-43
2023/10/25 06:13:12;;;;;;;167.60;19.93;;;7.10;99.90;;;;;;5104616;28;20221;-48
2023/10/25 06:15:41;;;;;;;157.90;20.00;;;7.10;99.90;;;;;;5100267;28;20808;-43
2023/10/25 06:18:09;;;;;;;135.23;18.97;;;7.20;99.90;;;;;;5108719;27;20655;-50
2023/10/25 06:20:36;;;;;;;173.10;20.27;;;7.20;99.90;;;;;;5074257;28;20812;-43
2023/10/25 06:23:03;;;;;;;137.17;19.00;;;7.20;99.90;;;;;;5108537;27;20209;-44
2023/10/25 06:25:31;;;;;;;174.90;19.90;;;7.30;99.90;;;;;;5104744;27;20961;-44
2023/10/25 06:27:59;;;;;;;84.80;16.77;;;7.30;99.90;;;;;;5112222;27;20717;-45
2023/10/25 06:30:26;;;;;;;192.07;21.47;;;7.30;99.90;;;;;;5101388;28;20197;-51
2023/10/25 06:32:58;;;;;;;108.07;19.30;;;7.30;99.90;;;;;;5104806;28;20213;-43
2023/10/25 06:35:24;;;;;;;209.20;23.30;;;7.40;99.90;;;;;;5069301;27;20891;-44
2023/10/25 06:37:52;;;;;;;100.63;18.43;;;7.40;99.90;;;;;;5091340;28;20278;-49
2023/10/25 06:40:20;;;;;;;112.80;17.23;;;7.40;99.90;;;;;;5101508;28;20185;-49
2023/10/25 06:42:47;;;;;;;115.03;18.27;;;7.50;99.90;;;;;;5099165;28;20574;-51
2023/10/25 06:45:15;;;;;;;138.20;20.23;;;7.40;99.90;;;;;;5102014;28;20181;-43
2023/10/25 06:47:43;;;;;;;103.27;17.17;;;7.50;99.90;;;;;;5104611;27;20225;-49
2023/10/25 06:50:14;;;;;;;104.77;17.93;;;7.50;99.90;;;;;;5063093;28;20209;-45
2023/10/25 06:52:41;;;;;;;84.77;17.73;;;7.50;99.90;;;;;;5104753;28;20222;-44
2023/10/25 06:55:09;;;;;;;51.23;15.77;;;7.50;99.90;;;;;;5100583;28;20746;-50
2023/10/25 06:57:37;;;;;;;63.73;15.97;;;7.50;99.90;;;;;;5104312;28;20254;-48
2023/10/25 07:00:08;;;;;;;85.93;18.33;;;7.50;99.90;;;;;;5100318;28;20205;-47
2023/10/25 07:02:40;;;;;;;85.37;18.70;;;7.60;99.90;;;;;;5103423;28;20237;-48
2023/10/25 07:05:13;;;;;;;80.20;18.87;;;7.60;99.90;;;;;;5091451;28;20201;-45
2023/10/25 07:07:43;;;;;;;87.77;18.77;;;7.60;99.90;;;;;;5074130;28;20303;-51
2023/10/25 07:10:12;;;;;;;93.37;18.23;;;7.60;99.90;;;;;;5100508;28;20204;-49
2023/10/25 07:12:39;;;;;;;63.53;18.57;;;7.70;99.90;;;;;;5103842;28;20241;-48
2023/10/25 07:15:07;;;;;;;47.67;17.43;;;7.70;99.90;;;;;;5099573;28;20493;-49
2023/10/25 07:17:34;;;;;;;34.93;17.40;;;7.70;99.90;;;;;;5103799;28;20218;-46
2023/10/25 07:20:01;;;;;;;37.90;17.17;;;7.70;99.90;;;;;;5091934;28;20656;-45
2023/10/25 07:22:30;;;;;;;35.17;16.00;;;7.80;99.90;;;;;;5069371;28;20222;-48
2023/10/25 07:24:56;;;;;;;34.73;16.70;;;7.80;99.90;;;;;;5097864;28;20194;-44
2023/10/25 07:27:23;;;;;;;37.30;18.87;;;7.90;99.90;;;;;;5102690;28;20599;-47
2023/10/25 07:29:51;;;;;;;35.47;16.47;;;7.90;99.90;;;;;;5102085;28;20202;-44
2023/10/25 07:32:17;;;;;;;31.73;17.50;;;7.90;99.90;;;;;;5101282;28;20411;-48
2023/10/25 07:34:44;;;;;;;28.00;15.90;;;7.90;99.90;;;;;;5102380;28;20602;-44
2023/10/25 07:37:11;;;;;;;34.50;17.43;;;8.00;99.90;;;;;;5061874;28;20205;-46
2023/10/25 07:39:41;;;;;;;31.03;16.83;;;8.00;99.90;;;;;;5106778;27;20202;-49
2023/10/25 07:42:08;;;;;;;31.30;17.57;;;8.10;99.90;;;;;;5099237;28;20272;-46
2023/10/25 07:44:35;;;;;;;31.37;16.70;;;8.10;99.90;;;;;;5101759;28;20230;-48
2023/10/25 07:47:03;;;;;;;31.20;16.97;;;8.20;99.90;;;;;;5099293;28;20239;-47
2023/10/25 07:49:29;;;;;;;31.60;16.90;;;8.30;99.90;;;;;;5102756;28;20290;-48
2023/10/25 07:51:56;;;;;;;31.37;17.23;;;8.40;99.90;;;;;;5090815;28;20217;-43
2023/10/25 07:54:24;;;;;;;31.27;18.10;;;8.50;99.90;;;;;;5072429;28;20209;-51
2023/10/25 07:56:52;;;;;;;30.60;16.70;;;8.50;99.90;;;;;;5101127;28;20205;-47
2023/10/25 07:59:19;;;;;;;27.57;16.17;;;8.60;99.90;;;;;;5101532;28;20246;-50
2023/10/25 08:01:46;;;;;;;32.53;17.43;;;8.70;99.90;;;;;;5102245;28;20278;-42
2023/10/25 08:04:13;;;;;;;26.87;15.53;;;8.70;99.90;;;;;;5100195;28;20198;-52
2023/10/25 08:06:40;;;;;;;28.60;15.37;;;8.80;99.90;;;;;;5094235;28;20578;-47
2023/10/25 08:09:07;;;;;;;31.00;16.80;;;8.90;99.90;;;;;;5069088;28;20213;-45
2023/10/25 08:11:36;;;;;;;29.47;16.53;;;8.90;99.90;;;;;;5100002;28;20193;-51
2023/10/25 08:14:05;;;;;;;27.67;16.40;;;9.00;99.90;;;;;;5096925;28;20196;-46
2023/10/25 08:16:32;;;;;;;30.20;15.80;;;9.10;99.90;;;;;;5102692;28;20563;-49
2023/10/25 08:18:59;;;;;;;29.37;15.77;;;9.20;99.90;;;;;;5099552;28;20186;-44
2023/10/25 08:21:26;;;;;;;28.07;15.97;;;9.30;99.90;;;;;;5092091;28;20671;-47
2023/10/25 08:23:54;;;;;;;21.50;15.13;;;9.40;99.90;;;;;;5083795;28;20205;-44
2023/10/25 08:26:25;;;;;;;24.30;15.23;;;9.40;99.90;;;;;;5092869;28;20201;-46
2023/10/25 08:28:52;;;;;;;27.87;16.07;;;9.50;99.90;;;;;;5100537;28;20209;-44
2023/10/25 08:31:20;;;;;;;24.33;16.10;;;9.60;99.90;;;;;;5100819;28;20937;-50
2023/10/25 08:33:47;;;;;;;22.63;13.60;;;9.70;99.90;;;;;;5101792;28;20234;-44
2023/10/25 08:36:14;;;;;;;26.23;13.90;;;9.70;99.90;;;;;;5099627;28;20205;-51
2023/10/25 08:38:40;;;;;;;24.03;14.57;;;9.80;99.90;;;;;;5093591;28;20205;-52
2023/10/25 08:41:08;;;;;;;25.23;14.63;;;9.80;99.90;;;;;;5067888;28;20197;-44
2023/10/25 08:43:36;;;;;;;22.00;14.30;;;9.90;99.90;;;;;;5098531;28;20271;-46
2023/10/25 08:46:04;;;;;;;22.03;13.50;;;10.00;99.90;;;;;;5098494;28;20185;-51
2023/10/25 08:48:34;;;;;;;19.13;13.17;;;10.00;99.90;;;;;;5102045;28;20247;-49
2023/10/25 08:51:01;;;;;;;23.57;12.90;;;10.10;99.90;;;;;;5098582;28;20538;-47
2023/10/25 08:53:29;;;;;;;18.93;12.97;;;10.20;99.90;;;;;;5093786;28;20297;-48
2023/10/25 08:55:57;;;;;;;16.70;12.27;;;10.30;99.90;;;;;;5066078;28;20258;-47
2023/10/25 08:58:25;;;;;;;20.50;12.90;;;10.30;99.90;;;;;;5102533;28;20209;-49
2023/10/25 09:00:53;;;;;;;18.30;12.17;;;10.50;99.90;;;;;;5100986;28;20212;-44
2023/10/25 09:03:43;;;;;;;22.53;12.10;;;10.60;99.90;;;;;;5100724;28;20250;-47
2023/10/25 09:06:11;;;;;;;18.03;10.40;;;10.70;99.90;;;;;;5099364;28;20196;-49
2023/10/25 09:08:39;;;;;;;15.57;9.93;;;10.70;99.90;;;;;;5094280;28;20212;-47
2023/10/25 09:11:08;;;;;;;15.97;10.50;;;10.70;99.90;;;;;;5068712;28;20307;-49
2023/10/25 09:13:36;;;;;;;18.77;10.47;;;10.70;99.90;;;;;;5099999;28;20271;-48
2023/10/25 09:16:04;;;;;;;14.90;9.43;;;10.80;99.90;;;;;;5098131;28;20788;-46
2023/10/25 09:18:32;;;;;;;14.30;9.87;;;10.80;99.90;;;;;;5102927;28;20186;-45
2023/10/25 09:21:01;;;;;;;13.83;10.03;;;10.90;99.90;;;;;;5099756;28;20198;-42
2023/10/25 09:23:29;;;;;;;14.83;9.77;;;11.00;99.90;;;;;;5102045;28;20697;-46
2023/10/25 09:25:56;;;;;;;13.60;8.10;;;11.10;99.90;;;;;;5069459;28;20200;-49
2023/10/25 09:28:30;;;;;;;16.03;9.77;;;11.10;99.90;;;;;;5091717;28;20555;-48
2023/10/25 09:30:58;;;;;;;11.97;8.50;;;11.20;99.90;;;;;;5098948;28;20202;-47
2023/10/25 09:33:25;;;;;;;11.17;7.83;;;11.20;99.90;;;;;;5102972;28;20221;-48
2023/10/25 09:35:52;;;;;;;12.07;8.00;;;11.30;99.90;;;;;;5101326;28;20190;-46
2023/10/25 09:38:21;;;;;;;11.10;7.13;;;11.30;99.90;;;;;;5095289;28;20198;-45
2023/10/25 09:40:48;;;;;;;7.70;6.70;;;11.40;99.90;;;;;;5084854;28;20201;-52
2023/10/25 09:43:19;;;;;;;12.70;7.57;;;11.60;99.90;;;;;;5063469;28;20310;-44
2023/10/25 09:45:51;;;;;;;10.03;6.23;;;11.60;99.90;;;;;;5097280;28;20927;-46
2023/10/25 09:48:20;;;;;;;13.27;7.07;;;11.60;99.90;;;;;;5100285;28;20198;-45
2023/10/25 09:51:03;;;;;;;9.17;6.43;;;11.80;99.90;;;;;;5099297;28;20284;-50
2023/10/25 09:53:38;;;;;;;13.00;6.97;;;11.80;99.90;;;;;;5098320;28;20722;-45
2023/10/25 09:56:09;;;;;;;10.43;6.57;;;11.80;99.90;;;;;;5083135;28;20191;-51
2023/10/25 09:58:36;;;;;;;10.50;6.23;;;11.90;99.90;;;;;;5075543;27;20269;-45
2023/10/25 10:01:05;;;;;;;9.17;7.10;;;11.90;99.90;;;;;;5092992;28;20895;-50
2023/10/25 10:03:44;;;;;;;8.57;6.13;;;12.00;99.90;;;;;;5105266;28;20221;-48
2023/10/25 10:06:23;;;;;;;7.17;6.10;;;12.00;99.90;;;;;;5102376;28;20193;-49
2023/10/25 10:09:00;;;;;;;7.17;6.07;;;12.10;99.90;;;;;;5102924;28;20213;-43
2023/10/25 10:11:32;;;;;;;8.47;5.63;;;12.10;99.90;;;;;;5095561;28;20200;-51
2023/10/25 10:14:31;;;;;;;7.43;5.90;;;12.10;99.90;;;;;;5079292;27;20205;-52
2023/10/25 10:16:59;;;;;;;6.17;5.43;;;12.20;99.90;;;;;;5100572;28;20186;-50
2023/10/25 10:19:26;;;;;;;7.53;5.90;;;12.20;99.90;;;;;;5104801;28;20281;-49
2023/10/25 10:22:07;;;;;;;8.37;5.83;;;12.20;99.90;;;;;;5102034;28;20205;-45
2023/10/25 10:24:45;;;;;;;9.17;6.27;;;12.20;99.90;;;;;;5101255;28;20247;-50
2023/10/25 10:27:13;;;;;;;8.10;5.47;;;12.30;99.90;;;;;;5093526;28;20205;-45
2023/10/25 10:29:42;;;;;;;9.13;5.47;;;12.30;99.90;;;;;;5074571;28;20221;-44
2023/10/25 10:32:09;;;;;;;7.27;5.50;;;12.30;99.90;;;;;;5101864;28;20346;-51
2023/10/25 10:34:45;;;;;;;10.00;5.40;;;12.40;99.90;;;;;;5107748;27;20596;-49
2023/10/25 10:37:13;;;;;;;7.60;5.00;;;12.50;99.90;;;;;;5101053;28;20193;-50
2023/10/25 10:40:14;;;;;;;7.40;5.37;;;12.50;99.90;;;;;;5104376;28;20273;-46
2023/10/25 10:42:41;;;;;;;7.47;6.13;;;12.60;99.90;;;;;;5094807;28;20217;-45
2023/10/25 10:45:13;;;;;;;10.00;5.27;;;12.70;99.90;;;;;;5063610;28;20748;-45
2023/10/25 10:47:42;;;;;;;6.80;5.60;;;12.70;99.90;;;;;;5104444;27;20193;-45
2023/10/25 10:50:13;;;;;;;6.90;5.30;;;12.60;99.90;;;;;;5103206;27;20231;-51
2023/10/25 10:52:41;;;;;;;5.63;4.77;;;12.70;99.90;;;;;;5103954;28;20229;-43
2023/10/25 10:55:13;;;;;;;6.70;4.63;;;12.80;99.90;;;;;;5101790;28;20188;-46
2023/10/25 10:57:40;;;;;;;8.03;5.20;;;12.70;99.90;;;;;;5095506;27;20251;-43
2023/10/25 11:00:09;;;;;;;6.70;4.60;;;12.80;99.90;;;;;;5071755;27;20405;-48
2023/10/25 11:02:37;;;;;;;5.67;4.27;;;12.90;99.90;;;;;;5100589;28;20213;-46
2023/10/25 11:05:05;;;;;;;11.77;3.90;;;13.10;99.90;;;;;;5100471;28;20220;-51
2023/10/25 11:07:31;;;;;;;7.27;4.00;;;13.10;99.90;;;;;;5104334;27;20270;-45
2023/10/25 11:09:58;;;;;;;9.33;4.37;;;13.10;99.90;;;;;;5101525;27;20269;-51
2023/10/25 11:12:27;;;;;;;4.83;3.53;;;13.10;99.90;;;;;;5093380;28;20316;-47
2023/10/25 11:14:54;;;;;;;7.00;3.20;;;13.10;99.90;;;;;;5068305;27;20206;-45
2023/10/25 11:17:21;;;;;;;7.50;3.50;;;13.10;99.90;;;;;;5101670;28;20227;-48
2023/10/25 11:19:49;;;;;;;3.70;2.90;;;13.20;99.90;;;;;;5102298;27;20189;-45
2023/10/25 11:22:16;;;;;;;5.33;3.27;;;13.20;99.90;;;;;;5106056;27;20216;-50
2023/10/25 11:24:42;;;;;;;3.90;2.40;;;13.20;99.90;;;;;;5099886;27;20193;-46
2023/10/25 11:27:09;;;;;;;8.63;3.17;;;13.20;99.90;;;;;;5105659;27;20200;-48
2023/10/25 11:29:38;;;;;;;7.63;3.70;;;13.20;99.90;;;;;;5075395;27;20580;-49
2023/10/25 11:32:11;;;;;;;4.83;2.50;;;13.20;99.90;;;;;;5099043;27;20228;-46
2023/10/25 11:34:41;;;;;;;9.37;3.40;;;13.20;99.90;;;;;;5103195;27;20203;-45
2023/10/25 11:37:08;;;;;;;6.03;2.20;;;13.20;99.90;;;;;;5103372;28;20194;-48
2023/10/25 11:39:55;;;;;;;6.00;3.03;;;13.20;99.90;;;;;;5101383;28;20272;-47
2023/10/25 11:42:22;;;;;;;4.03;2.50;;;13.20;99.90;;;;;;5104853;27;20707;-49
2023/10/25 11:44:50;;;;;;;6.63;1.93;;;13.30;99.90;;;;;;5088151;27;20984;-46
2023/10/25 11:47:18;;;;;;;8.07;1.90;;;13.40;99.90;;;;;;5086217;27;20258;-49
2023/10/25 11:49:45;;;;;;;4.23;2.30;;;13.50;99.90;;;;;;5094082;27;20813;-47
2023/10/25 11:52:12;;;;;;;2.40;1.60;;;13.60;99.90;;;;;;5106400;27;20695;-47
2023/10/25 11:54:39;;;;;;;6.90;1.70;;;13.70;99.90;;;;;;5091472;28;20193;-47
2023/10/25 11:57:06;;;;;;;3.07;1.60;;;13.70;99.90;;;;;;5092375;27;20201;-48
2023/10/25 11:59:32;;;;;;;6.77;1.70;;;13.90;99.90;;;;;;5091713;28;20853;-44
2023/10/25 12:02:00;;;;;;;2.90;1.70;;;13.90;99.90;;;;;;5073356;28;20224;-50
2023/10/25 12:04:27;;;;;;;3.73;1.67;;;13.90;99.90;;;;;;5099934;28;20546;-43
2023/10/25 12:06:54;;;;;;;7.27;1.90;;;14.10;99.90;;;;;;5101854;28;20189;-47
2023/10/25 12:09:21;;;;;;;2.60;1.50;;;14.20;99.90;;;;;;5099319;28;20244;-47
2023/10/25 12:11:48;;;;;;;3.43;2.00;;;14.20;99.90;;;;;;5095087;28;20961;-48
2023/10/25 12:14:15;;;;;;;3.37;1.63;;;14.20;99.90;;;;;;5102971;28;20205;-49
2023/10/25 12:16:42;;;;;;;5.70;1.37;;;14.30;99.90;;;;;;5090206;28;20858;-45
2023/10/25 12:19:10;;;;;;;4.27;1.30;;;14.40;99.90;;;;;;5071811;28;20810;-46
2023/10/25 12:21:37;;;;;;;4.23;1.67;;;14.50;99.90;;;;;;5094632;28;20282;-50
2023/10/25 12:24:04;;;;;;;4.07;1.97;;;14.50;99.90;;;;;;5102776;28;20190;-47
2023/10/25 12:26:31;;;;;;;5.13;1.50;;;14.50;99.90;;;;;;5093572;27;20212;-49
2023/10/25 12:28:58;;;;;;;2.87;1.57;;;14.50;99.90;;;;;;5102302;28;20660;-48
2023/10/25 12:31:25;;;;;;;7.47;1.70;;;14.50;99.90;;;;;;5090798;28;20189;-44
2023/10/25 12:33:52;;;;;;;4.17;1.90;;;14.50;99.90;;;;;;5070684;28;20396;-48
2023/10/25 12:36:20;;;;;;;4.23;1.77;;;14.30;99.90;;;;;;5101692;28;20193;-46
2023/10/25 12:38:46;;;;;;;1.60;1.50;;;14.30;99.90;;;;;;5099838;28;20185;-47
2023/10/25 12:41:13;;;;;;;3.37;1.60;;;14.30;99.90;;;;;;5100472;27;20201;-47
2023/10/25 12:43:40;;;;;;;3.77;1.50;;;14.40;99.90;;;;;;5082031;28;20214;-45